sensor_id;sensor_type;location;lat;lon;timestamp;temperature;humidity
39957;DHT22;48483;44.640;7.494;2023-11-21T00:01:17;10.10;99.90
39957;DHT22;48483;44.640;7.494;2023-11-21T00:03:44;10.10;99.90
39957;DHT22;48483;44.640;7.494;2023-11-21T00:06:11;10.10;99.90
39957;DHT22;48483;44.640;7.494;2023-11-21T00:08:37;10.10;99.90
39957;DHT22;48483;44.640;7.494;2023-11-21T00:11:04;10.10;99.90
39957;DHT22;48483;44.640;7.494;2023-11-21T00:13:34;10.10;99.90
39957;DHT22;48483;44.640;7.494;2023-11-21T00:16:01;10.10;99.90
39957;DHT22;48483;44.640;7.494;2023-11-21T00:18:29;10.10;99.90
39957;DHT22;48483;44.640;7.494;2023-11-21T00:20:56;10.10;99.90
39957;DHT22;48483;44.640;7.494;2023-11-21T00:23:25;10.10;99.90
39957;DHT22;48483;44.640;7.494;2023-11-21T00:25:52;10.10;99.90
39957;DHT22;48483;44.640;7.494;2023-11-21T00:28:19;10.10;99.90
39957;DHT22;48483;44.640;7.494;2023-11-21T00:30:45;10.10;99.90
39957;DHT22;48483;44.640;7.494;2023-11-21T00:33:12;10.10;99.90
39957;DHT22;48483;44.640;7.494;2023-11-21T00:35:41;10.10;99.90
39957;DHT22;48483;44.640;7.494;2023-11-21T00:38:08;10.10;99.90
39957;DHT22;48483;44.640;7.494;2023-11-21T00:40:35;10.10;99.90
39957;DHT22;48483;44.640;7.494;2023-11-21T00:43:02;10.10;99.90
39957;DHT22;48483;44.640;7.494;2023-11-21T00:45:28;10.10;99.90
39957;DHT22;48483;44.640;7.494;2023-11-21T00:47:55;10.10;99.90
39957;DHT22;48483;44.640;7.494;2023-11-21T00:50:22;10.10;99.90
39957;DHT22;48483;44.640;7.494;2023-11-21T00:52:50;10.10;99.90
39957;DHT22;48483;44.640;7.494;2023-11-21T00:55:18;10.10;99.90
39957;DHT22;48483;44.640;7.494;2023-11-21T00:57:44;10.10;99.90
39957;DHT22;48483;44.640;7.494;2023-11-21T01:00:12;10.10;99.90
39957;DHT22;48483;44.640;7.494;2023-11-21T01:02:44;10.10;99.90
39957;DHT22;48483;44.640;7.494;2023-11-21T01:05:11;10.10;99.90
39957;DHT22;48483;44.640;7.494;2023-11-21T01:07:38;10.10;99.90
39957;DHT22;48483;44.640;7.494;2023-11-21T01:10:06;10.10;99.90
39957;DHT22;48483;44.640;7.494;2023-11-21T01:12:34;10.10;99.90
39957;DHT22;48483;44.640;7.494;2023-11-21T01:15:02;10.10;99.90
39957;DHT22;48483;44.640;7.494;2023-11-21T01:17:29;10.10;99.90
39957;DHT22;48483;44.640;7.494;2023-11-21T01:19:56;10.10;99.90
39957;DHT22;48483;44.640;7.494;2023-11-21T01:22:24;10.10;99.90
39957;DHT22;48483;44.640;7.494;2023-11-21T01:24:53;10.10;99.90
39957;DHT22;48483;44.640;7.494;2023-11-21T01:27:22;10.10;99.90
39957;DHT22;48483;44.640;7.494;2023-11-21T01:29:49;10.10;99.90
39957;DHT22;48483;44.640;7.494;2023-11-21T01:32:16;10.10;99.90
39957;DHT22;48483;44.640;7.494;2023-11-21T01:34:42;10.10;99.90
39957;DHT22;48483;44.640;7.494;2023-11-21T01:37:09;10.10;99.90
39957;DHT22;48483;44.640;7.494;2023-11-21T01:39:38;10.10;99.90
39957;DHT22;48483;44.640;7.494;2023-11-21T01:42:06;10.10;99.90
39957;DHT22;48483;44.640;7.494;2023-11-21T01:44:35;10.10;99.90
39957;DHT22;48483;44.640;7.494;2023-11-21T01:47:02;10.10;99.90
39957;DHT22;48483;44.640;7.494;2023-11-21T01:49:32;10.10;99.90
39957;DHT22;48483;44.640;7.494;2023-11-21T01:52:00;10.10;99.90
39957;DHT22;48483;44.640;7.494;2023-11-21T01:54:27;10.10;99.90
39957;DHT22;48483;44.640;7.494;2023-11-21T01:56:58;10.10;99.90
39957;DHT22;48483;44.640;7.494;2023-11-21T01:59:34;10.10;99.90
39957;DHT22;48483;44.640;7.494;2023-11-21T02:02:03;10.10;99.90
39957;DHT22;48483;44.640;7.494;2023-11-21T02:04:32;10.10;99.90
39957;DHT22;48483;44.640;7.494;2023-11-21T02:06:59;10.10;99.90
39957;DHT22;48483;44.640;7.494;2023-11-21T02:09:27;10.10;99.90
39957;DHT22;48483;44.640;7.494;2023-11-21T02:11:53;10.10;99.90
39957;DHT22;48483;44.640;7.494;2023-11-21T02:14:20;10.10;99.90
39957;DHT22;48483;44.640;7.494;2023-11-21T02:16:50;10.00;99.90
39957;DHT22;48483;44.640;7.494;2023-11-21T02:19:19;10.00;99.90
39957;DHT22;48483;44.640;7.494;2023-11-21T02:21:47;10.00;99.90
39957;DHT22;48483;44.640;7.494;2023-11-21T02:24:18;10.00;99.90
39957;DHT22;48483;44.640;7.494;2023-11-21T02:26:45;10.00;99.90
39957;DHT22;48483;44.640;7.494;2023-11-21T02:29:12;10.00;99.90
39957;DHT22;48483;44.640;7.494;2023-11-21T02:31:40;10.00;99.90
39957;DHT22;48483;44.640;7.494;2023-11-21T02:34:14;10.00;99.90
39957;DHT22;48483;44.640;7.494;2023-11-21T02:36:43;10.00;99.90
39957;DHT22;48483;44.640;7.494;2023-11-21T02:39:10;10.00;99.90
39957;DHT22;48483;44.640;7.494;2023-11-21T02:41:38;10.00;99.90
39957;DHT22;48483;44.640;7.494;2023-11-21T02:44:06;10.00;99.90
39957;DHT22;48483;44.640;7.494;2023-11-21T02:46:33;10.00;99.90
39957;DHT22;48483;44.640;7.494;2023-11-21T02:49:01;10.00;99.90
39957;DHT22;48483;44.640;7.494;2023-11-21T02:51:27;10.00;99.90
39957;DHT22;48483;44.640;7.494;2023-11-21T02:53:54;10.00;99.90
39957;DHT22;48483;44.640;7.494;2023-11-21T02:56:25;9.90;99.90
39957;DHT22;48483;44.640;7.494;2023-11-21T02:58:56;10.00;99.90
39957;DHT22;48483;44.640;7.494;2023-11-21T03:01:23;9.90;99.90
39957;DHT22;48483;44.640;7.494;2023-11-21T03:03:52;10.00;99.90
39957;DHT22;48483;44.640;7.494;2023-11-21T03:06:19;10.00;99.90
39957;DHT22;48483;44.640;7.494;2023-11-21T03:08:46;10.00;99.90
39957;DHT22;48483;44.640;7.494;2023-11-21T03:11:13;10.00;99.90
39957;DHT22;48483;44.640;7.494;2023-11-21T03:13:40;10.00;99.90
39957;DHT22;48483;44.640;7.494;2023-11-21T03:16:13;10.00;99.90
39957;DHT22;48483;44.640;7.494;2023-11-21T03:18:40;10.00;99.90
39957;DHT22;48483;44.640;7.494;2023-11-21T03:21:07;10.00;99.90
39957;DHT22;48483;44.640;7.494;2023-11-21T03:23:37;9.90;99.90
39957;DHT22;48483;44.640;7.494;2023-11-21T03:26:04;10.00;99.90
39957;DHT22;48483;44.640;7.494;2023-11-21T03:28:31;9.90;99.90
39957;DHT22;48483;44.640;7.494;2023-11-21T03:30:58;9.90;99.90
39957;DHT22;48483;44.640;7.494;2023-11-21T03:33:26;10.00;99.90
39957;DHT22;48483;44.640;7.494;2023-11-21T03:35:53;10.00;99.90
39957;DHT22;48483;44.640;7.494;2023-11-21T03:38:20;9.90;99.90
39957;DHT22;48483;44.640;7.494;2023-11-21T03:40:47;10.00;99.90
39957;DHT22;48483;44.640;7.494;2023-11-21T03:43:14;9.90;99.90
39957;DHT22;48483;44.640;7.494;2023-11-21T03:45:41;9.90;99.90
39957;DHT22;48483;44.640;7.494;2023-11-21T03:48:07;10.00;99.90
39957;DHT22;48483;44.640;7.494;2023-11-21T03:50:39;10.00;99.90
39957;DHT22;48483;44.640;7.494;2023-11-21T03:53:07;10.00;99.90
39957;DHT22;48483;44.640;7.494;2023-11-21T03:55:33;10.00;99.90
39957;DHT22;48483;44.640;7.494;2023-11-21T03:58:00;10.00;99.90
39957;DHT22;48483;44.640;7.494;2023-11-21T04:00:27;10.00;99.90
39957;DHT22;48483;44.640;7.494;2023-11-21T04:02:54;10.00;99.90
39957;DHT22;48483;44.640;7.494;2023-11-21T04:05:21;10.10;99.90
39957;DHT22;48483;44.640;7.494;2023-11-21T04:07:50;10.00;99.90
39957;DHT22;48483;44.640;7.494;2023-11-21T04:10:17;10.00;99.90
39957;DHT22;48483;44.640;7.494;2023-11-21T04:12:44;10.00;99.90
39957;DHT22;48483;44.640;7.494;2023-11-21T04:15:12;10.00;99.90
39957;DHT22;48483;44.640;7.494;2023-11-21T04:17:42;10.00;99.90
39957;DHT22;48483;44.640;7.494;2023-11-21T04:20:09;10.00;99.90
39957;DHT22;48483;44.640;7.494;2023-11-21T04:22:37;10.00;99.90
39957;DHT22;48483;44.640;7.494;2023-11-21T04:25:09;10.10;99.90
39957;DHT22;48483;44.640;7.494;2023-11-21T04:27:38;10.00;99.90
39957;DHT22;48483;44.640;7.494;2023-11-21T04:30:06;10.00;99.90
39957;DHT22;48483;44.640;7.494;2023-11-21T04:32:33;10.00;99.90
39957;DHT22;48483;44.640;7.494;2023-11-21T04:35:00;10.00;99.90
39957;DHT22;48483;44.640;7.494;2023-11-21T04:37:26;10.00;99.90
39957;DHT22;48483;44.640;7.494;2023-11-21T04:39:53;10.00;99.90
39957;DHT22;48483;44.640;7.494;2023-11-21T04:42:21;10.00;99.90
39957;DHT22;48483;44.640;7.494;2023-11-21T04:44:48;10.00;99.90
39957;DHT22;48483;44.640;7.494;2023-11-21T04:47:15;10.00;99.90
39957;DHT22;48483;44.640;7.494;2023-11-21T04:49:42;10.00;99.90
39957;DHT22;48483;44.640;7.494;2023-11-21T04:52:10;10.00;99.90
39957;DHT22;48483;44.640;7.494;2023-11-21T04:54:37;10.00;99.90
39957;DHT22;48483;44.640;7.494;2023-11-21T04:57:03;10.00;99.90
39957;DHT22;48483;44.640;7.494;2023-11-21T04:59:32;10.00;99.90
39957;DHT22;48483;44.640;7.494;2023-11-21T05:01:59;10.00;99.90
39957;DHT22;48483;44.640;7.494;2023-11-21T05:04:26;9.90;99.90
39957;DHT22;48483;44.640;7.494;2023-11-21T05:06:53;9.90;99.90
39957;DHT22;48483;44.640;7.494;2023-11-21T05:09:20;10.00;99.90
39957;DHT22;48483;44.640;7.494;2023-11-21T05:11:48;10.00;99.90
39957;DHT22;48483;44.640;7.494;2023-11-21T05:14:15;10.00;99.90
39957;DHT22;48483;44.640;7.494;2023-11-21T05:16:43;10.00;99.90
39957;DHT22;48483;44.640;7.494;2023-11-21T05:19:10;10.00;99.90
39957;DHT22;48483;44.640;7.494;2023-11-21T05:21:38;10.00;99.90
39957;DHT22;48483;44.640;7.494;2023-11-21T05:24:05;9.90;99.90
39957;DHT22;48483;44.640;7.494;2023-11-21T05:26:32;9.90;99.90
39957;DHT22;48483;44.640;7.494;2023-11-21T05:28:59;9.80;99.90
39957;DHT22;48483;44.640;7.494;2023-11-21T05:31:25;9.90;99.90
39957;DHT22;48483;44.640;7.494;2023-11-21T05:33:54;9.90;99.90
39957;DHT22;48483;44.640;7.494;2023-11-21T05:36:22;9.90;99.90
39957;DHT22;48483;44.640;7.494;2023-11-21T05:38:48;9.90;99.90
39957;DHT22;48483;44.640;7.494;2023-11-21T05:41:15;9.90;99.90
39957;DHT22;48483;44.640;7.494;2023-11-21T05:43:42;9.90;99.90
39957;DHT22;48483;44.640;7.494;2023-11-21T05:46:09;9.90;99.90
39957;DHT22;48483;44.640;7.494;2023-11-21T05:48:36;9.90;99.90
39957;DHT22;48483;44.640;7.494;2023-11-21T05:51:06;9.90;99.90
39957;DHT22;48483;44.640;7.494;2023-11-21T05:53:32;9.90;99.90
39957;DHT22;48483;44.640;7.494;2023-11-21T05:55:59;9.90;99.90
39957;DHT22;48483;44.640;7.494;2023-11-21T05:58:26;10.00;99.90
39957;DHT22;48483;44.640;7.494;2023-11-21T06:00:53;10.00;99.90
39957;DHT22;48483;44.640;7.494;2023-11-21T06:03:19;10.00;99.90
39957;DHT22;48483;44.640;7.494;2023-11-21T06:05:46;9.90;99.90
39957;DHT22;48483;44.640;7.494;2023-11-21T06:08:14;9.90;99.90
39957;DHT22;48483;44.640;7.494;2023-11-21T06:10:43;9.90;99.90
39957;DHT22;48483;44.640;7.494;2023-11-21T06:13:15;10.00;99.90
39957;DHT22;48483;44.640;7.494;2023-11-21T06:15:42;9.90;99.90
39957;DHT22;48483;44.640;7.494;2023-11-21T06:18:28;9.90;99.90
39957;DHT22;48483;44.640;7.494;2023-11-21T06:20:54;9.90;99.90
39957;DHT22;48483;44.640;7.494;2023-11-21T06:23:22;9.90;99.90
39957;DHT22;48483;44.640;7.494;2023-11-21T06:25:49;9.90;99.90
39957;DHT22;48483;44.640;7.494;2023-11-21T06:28:16;9.90;99.90
39957;DHT22;48483;44.640;7.494;2023-11-21T06:30:44;9.90;99.90
39957;DHT22;48483;44.640;7.494;2023-11-21T06:33:15;9.90;99.90
39957;DHT22;48483;44.640;7.494;2023-11-21T06:35:42;9.90;99.90
39957;DHT22;48483;44.640;7.494;2023-11-21T06:38:09;9.90;99.90
39957;DHT22;48483;44.640;7.494;2023-11-21T06:40:37;9.90;99.90
39957;DHT22;48483;44.640;7.494;2023-11-21T06:43:04;9.90;99.90
39957;DHT22;48483;44.640;7.494;2023-11-21T06:45:33;9.90;99.90
39957;DHT22;48483;44.640;7.494;2023-11-21T06:48:00;9.90;99.90
39957;DHT22;48483;44.640;7.494;2023-11-21T06:50:27;9.90;99.90
39957;DHT22;48483;44.640;7.494;2023-11-21T06:52:54;9.90;99.90
39957;DHT22;48483;44.640;7.494;2023-11-21T06:55:20;9.90;99.90
39957;DHT22;48483;44.640;7.494;2023-11-21T06:57:49;9.90;99.90
39957;DHT22;48483;44.640;7.494;2023-11-21T07:00:17;9.90;99.90
39957;DHT22;48483;44.640;7.494;2023-11-21T07:02:44;9.90;99.90
39957;DHT22;48483;44.640;7.494;2023-11-21T07:05:11;9.90;99.90
39957;DHT22;48483;44.640;7.494;2023-11-21T07:07:38;9.90;99.90
39957;DHT22;48483;44.640;7.494;2023-11-21T07:10:05;9.90;99.90
39957;DHT22;48483;44.640;7.494;2023-11-21T07:12:32;9.90;99.90
39957;DHT22;48483;44.640;7.494;2023-11-21T07:15:00;9.90;99.90
39957;DHT22;48483;44.640;7.494;2023-11-21T07:17:27;9.90;99.90
39957;DHT22;48483;44.640;7.494;2023-11-21T07:19:54;9.90;99.90
39957;DHT22;48483;44.640;7.494;2023-11-21T07:22:21;9.90;99.90
39957;DHT22;48483;44.640;7.494;2023-11-21T07:24:48;9.90;99.90
39957;DHT22;48483;44.640;7.494;2023-11-21T07:27:17;9.80;99.90
39957;DHT22;48483;44.640;7.494;2023-11-21T07:29:44;9.80;99.90
39957;DHT22;48483;44.640;7.494;2023-11-21T07:32:12;9.80;99.90
39957;DHT22;48483;44.640;7.494;2023-11-21T07:34:40;9.70;99.90
39957;DHT22;48483;44.640;7.494;2023-11-21T07:37:08;9.70;99.90
39957;DHT22;48483;44.640;7.494;2023-11-21T07:39:35;9.70;99.90
39957;DHT22;48483;44.640;7.494;2023-11-21T07:42:08;9.70;99.90
39957;DHT22;48483;44.640;7.494;2023-11-21T07:44:35;9.70;99.90
39957;DHT22;48483;44.640;7.494;2023-11-21T07:47:02;9.70;99.90
39957;DHT22;48483;44.640;7.494;2023-11-21T07:49:30;9.70;99.90
39957;DHT22;48483;44.640;7.494;2023-11-21T07:51:57;9.70;99.90
39957;DHT22;48483;44.640;7.494;2023-11-21T07:54:23;9.70;99.90
39957;DHT22;48483;44.640;7.494;2023-11-21T07:56:51;9.70;99.90
39957;DHT22;48483;44.640;7.494;2023-11-21T07:59:17;9.70;99.90
39957;DHT22;48483;44.640;7.494;2023-11-21T08:01:44;9.70;99.90
39957;DHT22;48483;44.640;7.494;2023-11-21T08:04:12;9.80;99.90
39957;DHT22;48483;44.640;7.494;2023-11-21T08:06:40;9.80;99.90
39957;DHT22;48483;44.640;7.494;2023-11-21T08:09:08;9.80;99.90
39957;DHT22;48483;44.640;7.494;2023-11-21T08:11:35;9.80;99.90
39957;DHT22;48483;44.640;7.494;2023-11-21T08:14:01;9.80;99.90
39957;DHT22;48483;44.640;7.494;2023-11-21T08:16:28;9.80;99.90
39957;DHT22;48483;44.640;7.494;2023-11-21T08:18:55;9.80;99.90
39957;DHT22;48483;44.640;7.494;2023-11-21T08:21:21;9.80;99.90
39957;DHT22;48483;44.640;7.494;2023-11-21T08:23:51;9.90;99.90
39957;DHT22;48483;44.640;7.494;2023-11-21T08:26:20;9.80;99.90
39957;DHT22;48483;44.640;7.494;2023-11-21T08:28:47;9.90;99.90
39957;DHT22;48483;44.640;7.494;2023-11-21T08:31:13;9.90;99.90
39957;DHT22;48483;44.640;7.494;2023-11-21T08:33:40;9.80;99.90
39957;DHT22;48483;44.640;7.494;2023-11-21T08:36:07;9.80;99.90
39957;DHT22;48483;44.640;7.494;2023-11-21T08:38:36;9.90;99.90
39957;DHT22;48483;44.640;7.494;2023-11-21T08:41:07;9.90;99.90
39957;DHT22;48483;44.640;7.494;2023-11-21T08:43:34;10.00;99.90
39957;DHT22;48483;44.640;7.494;2023-11-21T08:46:01;10.00;99.90
39957;DHT22;48483;44.640;7.494;2023-11-21T08:48:28;10.00;99.90
39957;DHT22;48483;44.640;7.494;2023-11-21T08:50:56;10.10;99.90
39957;DHT22;48483;44.640;7.494;2023-11-21T08:53:23;10.10;99.90
39957;DHT22;48483;44.640;7.494;2023-11-21T08:55:49;10.10;99.90
39957;DHT22;48483;44.640;7.494;2023-11-21T08:58:17;10.10;99.90
39957;DHT22;48483;44.640;7.494;2023-11-21T09:00:44;10.20;99.90
39957;DHT22;48483;44.640;7.494;2023-11-21T09:03:13;10.20;99.90
39957;DHT22;48483;44.640;7.494;2023-11-21T09:05:39;10.30;99.90
39957;DHT22;48483;44.640;7.494;2023-11-21T09:08:06;10.40;99.90
39957;DHT22;48483;44.640;7.494;2023-11-21T09:10:36;10.40;99.90
39957;DHT22;48483;44.640;7.494;2023-11-21T09:13:03;10.40;99.90
39957;DHT22;48483;44.640;7.494;2023-11-21T09:15:31;10.40;99.90
39957;DHT22;48483;44.640;7.494;2023-11-21T09:17:58;10.50;99.90
39957;DHT22;48483;44.640;7.494;2023-11-21T09:20:24;10.50;99.90
39957;DHT22;48483;44.640;7.494;2023-11-21T09:22:51;10.60;99.90
39957;DHT22;48483;44.640;7.494;2023-11-21T09:25:18;10.70;99.90
39957;DHT22;48483;44.640;7.494;2023-11-21T09:27:45;10.80;99.90
39957;DHT22;48483;44.640;7.494;2023-11-21T09:30:13;10.80;99.90
39957;DHT22;48483;44.640;7.494;2023-11-21T09:32:42;10.80;99.90
39957;DHT22;48483;44.640;7.494;2023-11-21T09:35:11;10.90;99.90
39957;DHT22;48483;44.640;7.494;2023-11-21T09:37:40;10.90;99.90
39957;DHT22;48483;44.640;7.494;2023-11-21T09:40:10;10.80;99.90
39957;DHT22;48483;44.640;7.494;2023-11-21T09:42:42;10.80;99.90
39957;DHT22;48483;44.640;7.494;2023-11-21T09:45:11;10.90;99.90
39957;DHT22;48483;44.640;7.494;2023-11-21T09:47:43;11.00;99.90
39957;DHT22;48483;44.640;7.494;2023-11-21T09:50:11;11.00;99.90
39957;DHT22;48483;44.640;7.494;2023-11-21T09:52:44;11.10;99.90
39957;DHT22;48483;44.640;7.494;2023-11-21T09:55:16;11.20;99.90
39957;DHT22;48483;44.640;7.494;2023-11-21T09:57:45;11.20;99.90
39957;DHT22;48483;44.640;7.494;2023-11-21T10:00:13;11.20;99.90
39957;DHT22;48483;44.640;7.494;2023-11-21T10:02:45;11.20;99.90
39957;DHT22;48483;44.640;7.494;2023-11-21T10:05:13;11.30;99.90
39957;DHT22;48483;44.640;7.494;2023-11-21T10:07:40;11.30;99.90
39957;DHT22;48483;44.640;7.494;2023-11-21T10:10:09;11.50;99.90
39957;DHT22;48483;44.640;7.494;2023-11-21T10:12:37;11.60;99.90
39957;DHT22;48483;44.640;7.494;2023-11-21T10:15:08;11.60;99.90
39957;DHT22;48483;44.640;7.494;2023-11-21T10:17:36;11.50;99.90
39957;DHT22;48483;44.640;7.494;2023-11-21T10:20:11;11.60;99.90
39957;DHT22;48483;44.640;7.494;2023-11-21T10:22:41;11.60;99.90
39957;DHT22;48483;44.640;7.494;2023-11-21T10:25:10;11.70;99.90
39957;DHT22;48483;44.640;7.494;2023-11-21T10:27:37;11.70;99.90
39957;DHT22;48483;44.640;7.494;2023-11-21T10:30:08;11.70;99.90
39957;DHT22;48483;44.640;7.494;2023-11-21T10:32:38;11.70;99.90
39957;DHT22;48483;44.640;7.494;2023-11-21T10:35:06;11.80;99.90
39957;DHT22;48483;44.640;7.494;2023-11-21T10:37:38;11.80;99.90
39957;DHT22;48483;44.640;7.494;2023-11-21T10:40:09;11.80;99.90
39957;DHT22;48483;44.640;7.494;2023-11-21T10:42:38;11.80;99.90
39957;DHT22;48483;44.640;7.494;2023-11-21T10:45:06;11.90;99.90
39957;DHT22;48483;44.640;7.494;2023-11-21T10:47:39;11.80;99.90
39957;DHT22;48483;44.640;7.494;2023-11-21T10:50:07;11.90;99.90
39957;DHT22;48483;44.640;7.494;2023-11-21T10:52:39;11.90;99.90
39957;DHT22;48483;44.640;7.494;2023-11-21T10:55:16;12.00;99.90
39957;DHT22;48483;44.640;7.494;2023-11-21T10:57:45;12.00;99.90
39957;DHT22;48483;44.640;7.494;2023-11-21T11:00:16;12.00;99.90
39957;DHT22;48483;44.640;7.494;2023-11-21T11:02:43;12.00;99.90
39957;DHT22;48483;44.640;7.494;2023-11-21T11:05:10;12.00;99.90
39957;DHT22;48483;44.640;7.494;2023-11-21T11:07:42;12.00;99.90
39957;DHT22;48483;44.640;7.494;2023-11-21T11:10:10;12.00;99.90
39957;DHT22;48483;44.640;7.494;2023-11-21T11:12:41;12.00;99.90
39957;DHT22;48483;44.640;7.494;2023-11-21T11:15:08;12.10;99.90
39957;DHT22;48483;44.640;7.494;2023-11-21T11:17:38;12.10;99.90
39957;DHT22;48483;44.640;7.494;2023-11-21T11:20:06;12.10;99.90
39957;DHT22;48483;44.640;7.494;2023-11-21T11:22:41;12.10;99.90
39957;DHT22;48483;44.640;7.494;2023-11-21T11:25:30;12.10;99.90
39957;DHT22;48483;44.640;7.494;2023-11-21T11:28:06;12.10;99.90
39957;DHT22;48483;44.640;7.494;2023-11-21T11:30:45;12.20;99.90
39957;DHT22;48483;44.640;7.494;2023-11-21T11:33:24;12.10;99.90
39957;DHT22;48483;44.640;7.494;2023-11-21T11:35:56;12.10;99.90
39957;DHT22;48483;44.640;7.494;2023-11-21T11:38:31;12.10;99.90
39957;DHT22;48483;44.640;7.494;2023-11-21T11:41:02;12.20;99.90
39957;DHT22;48483;44.640;7.494;2023-11-21T11:43:32;12.20;99.90
39957;DHT22;48483;44.640;7.494;2023-11-21T11:46:03;12.20;99.90
39957;DHT22;48483;44.640;7.494;2023-11-21T11:48:30;12.30;99.90
39957;DHT22;48483;44.640;7.494;2023-11-21T11:51:03;12.30;99.90
39957;DHT22;48483;44.640;7.494;2023-11-21T11:53:36;12.30;99.90
39957;DHT22;48483;44.640;7.494;2023-11-21T11:56:24;12.40;99.90
39957;DHT22;48483;44.640;7.494;2023-11-21T11:58:55;12.40;99.90
39957;DHT22;48483;44.640;7.494;2023-11-21T12:01:24;12.40;99.90
39957;DHT22;48483;44.640;7.494;2023-11-21T12:04:25;12.40;99.90
39957;DHT22;48483;44.640;7.494;2023-11-21T12:07:01;12.40;99.90
39957;DHT22;48483;44.640;7.494;2023-11-21T12:09:31;12.50;99.90
39957;DHT22;48483;44.640;7.494;2023-11-21T12:11:59;12.50;99.90
39957;DHT22;48483;44.640;7.494;2023-11-21T12:14:26;12.50;99.90
39957;DHT22;48483;44.640;7.494;2023-11-21T12:16:53;12.50;99.90
39957;DHT22;48483;44.640;7.494;2023-11-21T12:19:20;12.40;99.90
39957;DHT22;48483;44.640;7.494;2023-11-21T12:21:48;12.50;99.90
39957;DHT22;48483;44.640;7.494;2023-11-21T12:24:15;12.50;99.90
39957;DHT22;48483;44.640;7.494;2023-11-21T12:26:44;12.50;99.90
39957;DHT22;48483;44.640;7.494;2023-11-21T12:29:11;12.50;99.90
39957;DHT22;48483;44.640;7.494;2023-11-21T12:31:37;12.60;99.90
39957;DHT22;48483;44.640;7.494;2023-11-21T12:34:05;12.60;99.90
39957;DHT22;48483;44.640;7.494;2023-11-21T12:36:33;12.60;99.90
39957;DHT22;48483;44.640;7.494;2023-11-21T12:39:01;12.60;99.90
39957;DHT22;48483;44.640;7.494;2023-11-21T12:41:29;12.60;99.90
39957;DHT22;48483;44.640;7.494;2023-11-21T12:43:58;12.60;99.90
39957;DHT22;48483;44.640;7.494;2023-11-21T12:46:25;12.60;99.90
39957;DHT22;48483;44.640;7.494;2023-11-21T12:48:56;12.60;99.90
39957;DHT22;48483;44.640;7.494;2023-11-21T12:51:24;12.60;99.90
39957;DHT22;48483;44.640;7.494;2023-11-21T12:53:52;12.60;99.90
39957;DHT22;48483;44.640;7.494;2023-11-21T12:56:21;12.60;99.90
39957;DHT22;48483;44.640;7.494;2023-11-21T12:58:49;12.60;99.90
39957;DHT22;48483;44.640;7.494;2023-11-21T13:01:19;12.70;99.90
39957;DHT22;48483;44.640;7.494;2023-11-21T13:03:48;12.70;99.90
39957;DHT22;48483;44.640;7.494;2023-11-21T13:06:18;12.60;99.90
39957;DHT22;48483;44.640;7.494;2023-11-21T13:08:46;12.60;99.90
39957;DHT22;48483;44.640;7.494;2023-11-21T13:11:13;12.60;99.90
39957;DHT22;48483;44.640;7.494;2023-11-21T13:13:41;12.70;99.90
39957;DHT22;48483;44.640;7.494;2023-11-21T13:16:11;12.70;99.90
39957;DHT22;48483;44.640;7.494;2023-11-21T13:18:40;12.70;99.90
39957;DHT22;48483;44.640;7.494;2023-11-21T13:21:08;12.70;99.90
39957;DHT22;48483;44.640;7.494;2023-11-21T13:23:43;12.70;99.90
39957;DHT22;48483;44.640;7.494;2023-11-21T13:26:12;12.70;99.90
39957;DHT22;48483;44.640;7.494;2023-11-21T13:28:41;12.70;99.90
39957;DHT22;48483;44.640;7.494;2023-11-21T13:31:12;12.70;99.90
39957;DHT22;48483;44.640;7.494;2023-11-21T13:33:50;12.60;99.90
39957;DHT22;48483;44.640;7.494;2023-11-21T13:36:22;12.70;99.90
39957;DHT22;48483;44.640;7.494;2023-11-21T13:38:49;12.70;99.90
39957;DHT22;48483;44.640;7.494;2023-11-21T13:41:16;12.70;99.90
39957;DHT22;48483;44.640;7.494;2023-11-21T13:43:44;12.70;99.90
39957;DHT22;48483;44.640;7.494;2023-11-21T13:46:17;12.70;99.90
39957;DHT22;48483;44.640;7.494;2023-11-21T13:48:49;12.80;99.90
39957;DHT22;48483;44.640;7.494;2023-11-21T13:51:23;12.70;99.90
39957;DHT22;48483;44.640;7.494;2023-11-21T13:53:58;12.70;99.90
39957;DHT22;48483;44.640;7.494;2023-11-21T13:56:25;12.60;99.90
39957;DHT22;48483;44.640;7.494;2023-11-21T13:58:53;12.60;99.90
39957;DHT22;48483;44.640;7.494;2023-11-21T14:01:21;12.70;99.90
39957;DHT22;48483;44.640;7.494;2023-11-21T14:04:00;12.70;99.90
39957;DHT22;48483;44.640;7.494;2023-11-21T14:06:35;12.70;99.90
39957;DHT22;48483;44.640;7.494;2023-11-21T14:09:12;12.70;99.90
39957;DHT22;48483;44.640;7.494;2023-11-21T14:11:40;12.70;99.90
39957;DHT22;48483;44.640;7.494;2023-11-21T14:14:06;12.70;99.90
39957;DHT22;48483;44.640;7.494;2023-11-21T14:16:33;12.70;99.90
39957;DHT22;48483;44.640;7.494;2023-11-21T14:19:01;12.70;99.90
39957;DHT22;48483;44.640;7.494;2023-11-21T14:21:40;12.60;99.90
39957;DHT22;48483;44.640;7.494;2023-11-21T14:24:09;12.60;99.90
39957;DHT22;48483;44.640;7.494;2023-11-21T14:26:36;12.60;99.90
39957;DHT22;48483;44.640;7.494;2023-11-21T14:29:03;12.60;99.90
39957;DHT22;48483;44.640;7.494;2023-11-21T14:31:29;12.60;99.90
39957;DHT22;48483;44.640;7.494;2023-11-21T14:33:57;12.60;99.90
39957;DHT22;48483;44.640;7.494;2023-11-21T14:36:26;12.60;99.90
39957;DHT22;48483;44.640;7.494;2023-11-21T14:38:53;12.60;99.90
39957;DHT22;48483;44.640;7.494;2023-11-21T14:41:20;12.60;99.90
39957;DHT22;48483;44.640;7.494;2023-11-21T14:43:47;12.60;99.90
39957;DHT22;48483;44.640;7.494;2023-11-21T14:46:16;12.60;99.90
39957;DHT22;48483;44.640;7.494;2023-11-21T14:48:45;12.60;99.90
39957;DHT22;48483;44.640;7.494;2023-11-21T14:51:26;12.60;99.90
39957;DHT22;48483;44.640;7.494;2023-11-21T14:53:59;12.60;99.90
39957;DHT22;48483;44.640;7.494;2023-11-21T14:56:36;12.60;99.90
39957;DHT22;48483;44.640;7.494;2023-11-21T14:59:05;12.60;99.90
39957;DHT22;48483;44.640;7.494;2023-11-21T15:01:42;12.50;99.90
39957;DHT22;48483;44.640;7.494;2023-11-21T15:04:19;12.50;99.90
39957;DHT22;48483;44.640;7.494;2023-11-21T15:06:56;12.50;99.90
39957;DHT22;48483;44.640;7.494;2023-11-21T15:09:24;12.40;99.90
39957;DHT22;48483;44.640;7.494;2023-11-21T15:12:00;12.40;99.90
39957;DHT22;48483;44.640;7.494;2023-11-21T15:14:43;12.40;99.90
39957;DHT22;48483;44.640;7.494;2023-11-21T15:17:12;12.30;99.90
39957;DHT22;48483;44.640;7.494;2023-11-21T15:19:44;12.30;99.90
39957;DHT22;48483;44.640;7.494;2023-11-21T15:22:13;12.30;99.90
39957;DHT22;48483;44.640;7.494;2023-11-21T15:24:42;12.30;99.90
39957;DHT22;48483;44.640;7.494;2023-11-21T15:27:12;12.20;99.90
39957;DHT22;48483;44.640;7.494;2023-11-21T15:29:39;12.30;99.90
39957;DHT22;48483;44.640;7.494;2023-11-21T15:32:06;12.20;99.90
39957;DHT22;48483;44.640;7.494;2023-11-21T15:34:33;12.20;99.90
39957;DHT22;48483;44.640;7.494;2023-11-21T15:37:00;12.20;99.90
39957;DHT22;48483;44.640;7.494;2023-11-21T15:39:29;12.20;99.90
39957;DHT22;48483;44.640;7.494;2023-11-21T15:41:57;12.10;99.90
39957;DHT22;48483;44.640;7.494;2023-11-21T15:44:24;12.10;99.90